Time;durP1;ratioP1;P1;durP2;ratioP2;P2;SDS_P1;SDS_P2;PMS_P1;PMS_P2;Temp;Humidity;BMP_temperature;BMP_pressure;BME280_temperature;BME280_humidity;BME280_pressure;Samples;Min_cycle;Max_cycle;Signal;HPM_P1;HPM_P2
2022/05/23 00:00:22;;;;;;;2.40;2.30;;;;;;;19.39;63.68;98901.16;5132744;27;20194;-68
2022/05/23 00:02:49;;;;;;;3.70;2.43;;;;;;;19.52;63.23;98900.66;5133047;27;20247;-68
2022/05/23 00:05:17;;;;;;;2.90;2.70;;;;;;;19.57;63.08;98908.75;5133017;27;20190;-68
2022/05/23 00:07:49;;;;;;;5.00;2.93;;;;;;;19.42;63.44;98901.47;5132971;27;20222;-68
2022/05/23 00:10:17;;;;;;;3.77;2.87;;;;;;;19.50;63.05;98897.41;5135423;27;20224;-68
2022/05/23 00:12:45;;;;;;;3.30;3.00;;;;;;;19.42;63.25;98882.59;5137727;27;20250;-68
2022/05/23 00:15:13;;;;;;;2.83;2.63;;;;;;;19.47;63.23;98900.63;5136774;27;20190;-68
2022/05/23 00:17:40;;;;;;;2.63;2.40;;;;;;;19.63;62.48;98895.00;5136708;27;20247;-68
2022/05/23 00:20:10;;;;;;;3.30;2.77;;;;;;;19.63;62.54;98904.97;5137177;27;20285;-68
2022/05/23 00:22:37;;;;;;;6.10;2.97;;;;;;;19.62;62.52;98895.28;5136627;27;20246;-68
2022/05/23 00:25:09;;;;;;;3.27;2.83;;;;;;;19.43;63.22;98894.16;5136512;27;20256;-68
2022/05/23 00:27:37;;;;;;;3.10;2.90;;;;;;;19.41;63.15;98893.63;5136508;27;20762;-67
2022/05/23 00:30:06;;;;;;;5.33;2.93;;;;;;;19.36;63.34;98894.44;5137063;27;20246;-67
2022/05/23 00:35:20;;;;;;;2.93;2.73;;;;;;;19.45;63.17;98889.34;5136835;27;20182;-68
2022/05/23 00:37:47;;;;;;;5.73;2.87;;;;;;;19.55;63.02;98890.16;5136340;27;20226;-67
2022/05/23 00:40:27;;;;;;;3.80;2.63;;;;;;;19.68;62.12;98896.88;5136571;27;20220;-67
2022/05/23 00:43:15;;;;;;;3.33;2.90;;;;;;;19.46;62.96;98896.34;5136858;27;20186;-68
2022/05/23 00:45:46;;;;;;;3.07;2.87;;;;;;;19.49;62.96;98890.41;5136207;27;20698;-68
2022/05/23 00:48:13;;;;;;;3.47;2.83;;;;;;;19.31;63.42;98890.91;5136052;27;20576;-67
2022/05/23 00:50:43;;;;;;;4.23;3.17;;;;;;;19.15;63.92;98891.94;5136992;27;20225;-68
2022/05/23 00:53:11;;;;;;;2.93;2.73;;;;;;;19.37;63.75;98889.88;5136885;27;20190;-68
2022/05/23 00:55:42;;;;;;;3.33;3.07;;;;;;;19.21;63.93;98890.88;5136342;27;20190;-68
2022/05/23 00:58:16;;;;;;;2.77;2.67;;;;;;;19.12;64.39;98892.47;5136862;27;20186;-68
2022/05/23 01:00:43;;;;;;;3.53;3.00;;;;;;;19.02;64.71;98887.03;5136872;27;20227;-68
2022/05/23 01:03:14;;;;;;;3.53;3.23;;;;;;;19.04;64.79;98891.09;5136679;27;20193;-68
2022/05/23 01:05:42;;;;;;;3.23;3.03;;;;;;;19.09;64.48;98887.59;5136160;27;20182;-68
2022/05/23 01:08:09;;;;;;;3.03;2.93;;;;;;;18.99;64.95;98883.00;5136853;27;20223;-68
2022/05/23 01:10:38;;;;;;;3.30;3.10;;;;;;;18.93;65.35;98888.63;5135674;27;20550;-68
2022/05/23 01:13:07;;;;;;;3.93;3.20;;;;;;;18.79;66.10;98884.84;5135992;27;20636;-68
2022/05/23 01:15:35;;;;;;;2.90;2.73;;;;;;;18.79;66.13;98876.75;5136140;27;20608;-68
2022/05/23 01:18:03;;;;;;;3.63;3.40;;;;;;;18.78;66.16;98872.47;5135973;27;20204;-68
2022/05/23 01:20:30;;;;;;;3.00;2.90;;;;;;;19.03;65.84;98870.63;5135865;27;20253;-67
2022/05/23 01:23:08;;;;;;;3.40;3.20;;;;;;;19.06;65.19;98871.97;5134689;27;20195;-67
2022/05/23 01:25:39;;;;;;;3.53;3.33;;;;;;;18.76;66.26;98874.59;5136087;27;20217;-68
2022/05/23 01:28:07;;;;;;;3.50;3.37;;;;;;;18.80;66.23;98886.44;5136483;27;20260;-68
2022/05/23 01:30:35;;;;;;;3.67;3.37;;;;;;;18.80;66.21;98875.69;5135280;27;20255;-68
2022/05/23 01:33:02;;;;;;;3.60;3.40;;;;;;;18.87;66.06;98878.94;5135869;27;20623;-68
2022/05/23 01:35:29;;;;;;;3.90;3.60;;;;;;;18.78;66.21;98869.75;5135808;27;20189;-68
2022/05/23 01:37:56;;;;;;;3.40;3.20;;;;;;;18.75;66.46;98878.34;5135519;27;20254;-68
2022/05/23 01:40:23;;;;;;;3.50;3.30;;;;;;;18.64;66.91;98874.81;5135993;27;20192;-68
2022/05/23 01:42:52;;;;;;;3.83;3.53;;;;;;;18.72;66.64;98876.19;5135948;27;20192;-68
2022/05/23 01:45:22;;;;;;;3.93;3.67;;;;;;;18.80;66.47;98878.38;5135026;27;20188;-68
2022/05/23 01:47:48;;;;;;;3.33;3.13;;;;;;;18.85;66.62;98873.00;5135007;27;20240;-68
2022/05/23 01:50:15;;;;;;;4.53;3.57;;;;;;;18.90;66.24;98873.81;5135347;27;20283;-68
2022/05/23 01:52:42;;;;;;;3.63;3.43;;;;;;;18.92;65.76;98873.56;5135209;27;20189;-68
2022/05/23 01:55:09;;;;;;;3.83;3.27;;;;;;;18.97;65.37;98873.56;5134861;27;20191;-68
2022/05/23 01:57:36;;;;;;;6.47;4.47;;;;;;;18.95;65.58;98875.75;5134808;27;20201;-68
2022/05/23 02:02:51;;;;;;;3.53;3.23;;;;;;;18.73;66.63;98873.22;5135134;27;20185;-67
2022/05/23 02:05:19;;;;;;;3.83;3.63;;;;;;;18.73;66.53;98870.53;5134962;27;20187;-68
2022/05/23 02:07:46;;;;;;;4.73;3.70;;;;;;;18.66;66.86;98861.09;5134848;27;20215;-67
2022/05/23 02:10:14;;;;;;;3.73;3.60;;;;;;;18.58;67.13;98867.00;5134757;27;20186;-68
2022/05/23 02:12:41;;;;;;;4.53;4.23;;;;;;;18.58;66.93;98864.31;5134892;27;20188;-68
2022/05/23 02:15:09;;;;;;;4.07;3.77;;;;;;;18.51;67.42;98866.41;5134784;27;20194;-67
2022/05/23 02:17:36;;;;;;;4.60;4.17;;;;;;;18.51;67.18;98858.34;5135250;27;20198;-68
2022/05/23 02:20:04;;;;;;;6.77;3.83;;;;;;;18.47;67.61;98862.63;5134248;27;20196;-67
2022/05/23 02:22:30;;;;;;;4.37;4.17;;;;;;;18.36;67.74;98855.56;5134325;27;20196;-67
2022/05/23 02:24:57;;;;;;;4.47;4.27;;;;;;;18.35;67.50;98856.66;5134852;27;20190;-67
2022/05/23 02:27:24;;;;;;;4.60;4.20;;;;;;;18.35;67.63;98862.84;5134678;27;20220;-68
2022/05/23 02:29:51;;;;;;;7.57;4.30;;;;;;;18.34;67.86;98855.81;5134140;27;20237;-67
2022/05/23 02:32:19;;;;;;;4.90;4.23;;;;;;;18.34;67.83;98853.13;5134037;27;20195;-67
2022/05/23 02:34:45;;;;;;;4.37;4.17;;;;;;;18.33;67.52;98861.47;5133963;27;20190;-67
2022/05/23 02:37:12;;;;;;;7.10;4.67;;;;;;;18.37;67.75;98855.31;5133968;27;20248;-67
2022/05/23 02:39:39;;;;;;;4.57;4.27;;;;;;;18.41;67.27;98860.97;5134253;27;20609;-68
2022/05/23 02:42:07;;;;;;;4.47;4.17;;;;;;;18.40;67.41;98859.34;5133860;27;20253;-68
2022/05/23 02:44:34;;;;;;;5.63;4.40;;;;;;;18.47;66.91;98851.88;5134430;27;20205;-68
2022/05/23 02:47:01;;;;;;;4.53;4.23;;;;;;;18.38;67.34;98858.81;5134864;27;20222;-68
2022/05/23 02:49:29;;;;;;;4.70;4.50;;;;;;;18.43;66.74;98856.16;5133554;27;20713;-68
2022/05/23 02:51:56;;;;;;;4.57;4.27;;;;;;;18.39;67.20;98861.25;5133685;27;20198;-68
2022/05/23 02:54:22;;;;;;;5.03;4.63;;;;;;;18.42;66.95;98865.31;5133672;27;20702;-67
2022/05/23 02:56:49;;;;;;;4.70;4.40;;;;;;;18.47;66.54;98857.25;5133608;27;20657;-67
2022/05/23 02:59:16;;;;;;;4.23;3.73;;;;;;;18.46;66.81;98858.31;5133579;27;20657;-67
2022/05/23 03:04:23;;;;;;;4.47;4.27;;;;;;;18.46;66.68;98858.31;5133450;27;20179;-67
2022/05/23 03:06:51;;;;;;;4.23;3.83;;;;;;;18.55;66.21;98867.50;5133310;27;20636;-67
2022/05/23 03:09:18;;;;;;;4.10;3.80;;;;;;;18.68;65.50;98869.72;5133408;27;20195;-67
2022/05/23 03:11:45;;;;;;;4.20;4.00;;;;;;;18.67;65.68;98873.47;5133349;27;20202;-67
2022/05/23 03:14:11;;;;;;;6.33;4.10;;;;;;;18.51;65.94;98869.09;5133267;27;20190;-68
2022/05/23 03:16:38;;;;;;;4.47;4.17;;;;;;;18.49;66.69;98865.84;5133247;27;20226;-68
2022/05/23 03:19:05;;;;;;;4.53;4.30;;;;;;;18.51;66.53;98871.78;5133216;27;20246;-68
2022/05/23 03:27:01;;;;;;;12.57;4.60;;;;;;;18.38;67.22;98872.28;5133488;27;20263;-67
2022/05/23 03:29:28;;;;;;;4.27;3.97;;;;;;;18.33;67.48;98878.38;5134252;27;20238;-68
2022/05/23 03:31:55;;;;;;;4.80;4.50;;;;;;;18.36;67.33;98871.69;5133691;27;20317;-68
2022/05/23 03:34:21;;;;;;;4.10;3.90;;;;;;;18.45;67.21;98872.81;5133349;27;20195;-68
2022/05/23 03:36:48;;;;;;;4.77;4.43;;;;;;;18.53;67.02;98866.94;5133329;27;20222;-68
2022/05/23 03:39:17;;;;;;;34.67;7.10;;;;;;;18.66;66.53;98871.88;5133459;27;20256;-68
2022/05/23 03:41:44;;;;;;;5.03;4.17;;;;;;;18.80;66.20;98873.81;5133813;27;20191;-67
2022/05/23 03:44:10;;;;;;;8.60;4.27;;;;;;;19.01;65.73;98874.66;5133167;27;20255;-68
2022/05/23 03:46:37;;;;;;;5.30;4.30;;;;;;;18.87;65.44;98878.94;5132891;27;20196;-68
2022/05/23 03:49:06;;;;;;;4.03;3.83;;;;;;;19.12;65.52;98871.72;5132603;27;20586;-68
2022/05/23 03:51:33;;;;;;;9.43;4.23;;;;;;;19.33;64.00;98886.09;5132768;27;20190;-68
2022/05/23 03:54:01;;;;;;;8.47;4.57;;;;;;;19.32;63.88;98881.78;5133114;27;20200;-68
2022/05/23 03:56:29;;;;;;;4.47;4.17;;;;;;;19.23;64.00;98883.31;5132999;27;20194;-67
2022/05/23 03:58:56;;;;;;;4.90;4.53;;;;;;;19.20;64.47;98878.50;5132687;27;20607;-68
2022/05/23 04:01:24;;;;;;;10.70;4.63;;;;;;;19.45;63.78;98892.03;5132948;27;20238;-68
2022/05/23 04:03:51;;;;;;;7.93;4.30;;;;;;;20.23;61.65;98888.81;5132896;27;20197;-64
2022/05/23 04:06:18;;;;;;;10.73;4.33;;;;;;;20.91;58.87;98889.94;5132700;27;20246;-63
2022/05/23 04:08:45;;;;;;;4.43;4.03;;;;;;;21.52;56.81;98892.03;5132524;27;20783;-63
2022/05/23 04:11:12;;;;;;;10.73;4.50;;;;;;;21.89;55.36;98886.88;5132721;27;20262;-64
2022/05/23 04:13:40;;;;;;;6.20;4.53;;;;;;;22.49;53.49;98891.75;5132601;27;20190;-64
2022/05/23 04:16:06;;;;;;;9.20;4.20;;;;;;;23.19;51.51;98890.88;5132918;27;20239;-65
2022/05/23 04:18:36;;;;;;;4.10;3.70;;;;;;;23.95;48.49;98904.16;5132508;27;20194;-64
2022/05/23 04:21:04;;;;;;;3.80;3.60;;;;;;;24.90;46.17;98895.03;5132586;27;20555;-65
2022/05/23 04:23:31;;;;;;;3.83;3.63;;;;;;;25.96;43.96;98906.28;5133708;27;20198;-64
2022/05/23 04:26:01;;;;;;;4.90;3.90;;;;;;;26.57;41.54;98900.84;5132514;27;20666;-65
2022/05/23 04:28:30;;;;;;;5.10;4.60;;;;;;;26.49;42.93;98901.59;5132432;27;20210;-66
2022/05/23 04:30:58;;;;;;;6.90;4.13;;;;;;;26.48;41.41;98905.47;5132793;27;20197;-65
2022/05/23 04:36:20;;;;;;;7.67;3.97;;;;;;;27.23;40.09;98897.91;5090301;28;20542;-65
2022/05/23 04:38:46;;;;;;;7.27;4.47;;;;;;;27.74;37.98;98893.28;5122047;27;20617;-66
2022/05/23 04:41:13;;;;;;;9.13;3.57;;;;;;;27.95;38.81;98896.16;5133267;27;20198;-67
2022/05/23 04:43:40;;;;;;;5.13;4.27;;;;;;;28.25;36.67;98893.22;5132188;27;20190;-71
2022/05/23 04:46:08;;;;;;;23.83;5.83;;;;;;;28.05;36.58;98890.38;5132925;27;20247;-72
2022/05/23 04:51:19;;;;;;;9.37;3.97;;;;;;;25.68;41.19;98883.78;5131163;28;20186;-72
2022/05/23 04:53:49;;;;;;;10.60;3.87;;;;;;;25.66;41.76;98879.78;5132819;27;20201;-72
2022/05/23 04:56:16;;;;;;;12.63;3.80;;;;;;;25.06;43.24;98881.16;5132619;27;20213;-72
2022/05/23 04:58:42;;;;;;;3.67;3.37;;;;;;;24.38;45.14;98875.69;5137064;27;20280;-72
2022/05/23 05:01:11;;;;;;;8.10;3.77;;;;;;;24.14;46.15;98867.69;5136486;27;20190;-72
2022/05/23 05:03:38;;;;;;;4.23;3.93;;;;;;;23.75;47.30;98861.84;5135522;27;20203;-72
2022/05/23 05:06:05;;;;;;;8.53;3.67;;;;;;;23.29;48.79;98862.84;5134719;27;20224;-71
2022/05/23 05:08:32;;;;;;;8.10;3.67;;;;;;;23.19;49.01;98858.34;5134991;27;20277;-72
2022/05/23 05:10:59;;;;;;;4.33;3.30;;;;;;;23.23;49.88;98864.81;5135566;27;20259;-72
2022/05/23 05:13:28;;;;;;;11.77;3.70;;;;;;;24.44;46.14;98859.00;5135317;27;20214;-72
2022/05/23 05:15:59;;;;;;;4.07;3.03;;;;;;;25.53;42.07;98876.00;5135957;27;20195;-72
2022/05/23 05:18:27;;;;;;;13.43;3.17;;;;;;;26.20;40.14;98871.34;5135872;27;20251;-72
2022/05/23 05:20:53;;;;;;;10.53;3.57;;;;;;;26.89;38.17;98873.25;5136238;27;20238;-72
2022/05/23 05:23:20;;;;;;;4.03;2.80;;;;;;;27.42;37.22;98879.31;5135679;27;20186;-72
2022/05/23 05:25:47;;;;;;;12.67;3.07;;;;;;;28.28;35.80;98875.38;5135723;27;20194;-72
2022/05/23 05:28:13;;;;;;;5.10;3.00;;;;;;;29.05;33.80;98878.63;5136138;27;20680;-72
2022/05/23 05:30:45;;;;;;;7.43;3.07;;;;;;;29.37;33.84;98875.19;5135660;27;20190;-72
2022/05/23 05:33:16;;;;;;;7.30;2.80;;;;;;;29.80;32.36;98872.91;5123330;27;20652;-72
2022/05/23 05:35:49;;;;;;;4.03;2.80;;;;;;;29.81;32.17;98874.53;5131468;27;20662;-72
2022/05/23 05:38:17;;;;;;;8.53;3.23;;;;;;;29.77;33.23;98876.34;5114682;27;20236;-72
2022/05/23 05:40:47;;;;;;;6.97;2.47;;;;;;;30.54;31.32;98887.28;5119558;27;20198;-72
2022/05/23 05:43:20;;;;;;;34.43;4.30;;;;;;;30.79;30.95;98882.66;5136023;27;20198;-71
2022/05/23 05:45:58;;;;;;;6.37;2.83;;;;;;;30.44;31.09;98881.44;5135105;27;20179;-72
2022/05/23 05:48:26;;;;;;;6.20;2.77;;;;;;;29.49;32.71;98872.50;5136011;27;20217;-72
2022/05/23 05:50:55;;;;;;;8.33;2.90;;;;;;;29.92;31.69;98880.38;5115991;27;20578;-72
2022/05/23 05:53:25;;;;;;;5.60;2.70;;;;;;;29.92;31.51;98880.38;5114855;28;20199;-72
2022/05/23 05:55:52;;;;;;;3.87;2.73;;;;;;;30.19;31.28;98869.63;5115224;27;20187;-72
2022/05/23 05:58:20;;;;;;;24.47;4.10;;;;;;;30.35;32.22;98867.84;5114094;28;20195;-72
2022/05/23 06:00:46;;;;;;;4.13;2.77;;;;;;;30.70;30.88;98876.50;5114400;28;20557;-73
2022/05/23 06:03:13;;;;;;;5.50;2.30;;;;;;;30.37;31.39;98868.28;5113938;28;20187;-72
2022/05/23 06:11:24;;;;;;;4.40;2.80;;;;;;;30.88;30.36;98864.94;5114023;28;20196;-72
2022/05/23 06:13:52;;;;;;;4.53;2.60;;;;;;;30.70;30.22;98858.06;5114350;28;20186;-72
2022/05/23 06:16:19;;;;;;;5.83;2.80;;;;;;;30.29;31.29;98863.72;5114485;28;20186;-71
2022/05/23 06:18:47;;;;;;;17.67;3.80;;;;;;;30.01;30.83;98870.13;5114030;28;20190;-71
2022/05/23 06:21:14;;;;;;;9.57;3.13;;;;;;;29.97;31.38;98863.72;5114932;28;20567;-71
2022/05/23 06:23:43;;;;;;;6.93;2.80;;;;;;;29.90;31.52;98861.53;5113948;28;20190;-71
2022/05/23 06:26:10;;;;;;;4.03;2.57;;;;;;;29.59;32.48;98858.44;5114587;28;20195;-72
2022/05/23 06:28:37;;;;;;;7.10;2.77;;;;;;;29.61;31.30;98858.91;5113743;28;20303;-72
2022/05/23 06:31:04;;;;;;;10.27;2.90;;;;;;;29.96;31.53;98856.66;5113527;28;20687;-72
2022/05/23 06:33:30;;;;;;;61.77;7.53;;;;;;;29.75;31.13;98862.16;5113876;28;20546;-72
2022/05/23 06:35:58;;;;;;;8.47;3.37;;;;;;;29.79;31.24;98857.59;5113401;28;20732;-72
2022/05/23 06:38:25;;;;;;;9.57;3.00;;;;;;;30.44;31.13;98843.88;5113274;28;20201;-72
2022/05/23 06:40:53;;;;;;;7.83;2.70;;;;;;;30.35;31.18;98840.44;5113615;28;20190;-71
2022/05/23 06:43:20;;;;;;;17.10;3.77;;;;;;;30.24;30.11;98841.19;5113854;28;20190;-71
2022/05/23 06:45:48;;;;;;;14.30;3.07;;;;;;;29.75;31.01;98842.19;5113262;27;20195;-72
2022/05/23 06:48:15;;;;;;;10.63;3.03;;;;;;;29.85;30.66;98847.25;5113777;28;20219;-71
2022/05/23 06:50:43;;;;;;;7.63;3.00;;;;;;;30.09;30.94;98848.09;5120641;27;20221;-70
2022/05/23 06:53:11;;;;;;;11.10;3.97;;;;;;;30.52;30.48;98851.19;5116026;27;20194;-71
2022/05/23 06:55:37;;;;;;;12.20;3.07;;;;;;;30.83;30.12;98845.94;5133366;27;20239;-70
2022/05/23 06:58:06;;;;;;;17.87;3.80;;;;;;;30.83;28.41;98845.94;5129000;27;20190;-71
2022/05/23 07:00:33;;;;;;;11.63;2.70;;;;;;;30.25;29.38;98843.59;5113275;27;20289;-71
2022/05/23 07:03:00;;;;;;;5.50;2.27;;;;;;;29.68;29.41;98845.47;5113095;28;20630;-70
2022/05/23 07:13:41;;;;;;;4.77;2.47;;;;;;;29.93;29.77;98852.63;5133349;27;20177;-70
2022/05/23 07:16:08;;;;;;;9.37;2.80;;;;;;;30.24;29.11;98838.47;5133641;27;20250;-72
2022/05/23 07:18:35;;;;;;;7.80;2.60;;;;;;;30.31;28.50;98845.00;5133198;27;20194;-71
2022/05/23 07:21:03;;;;;;;4.20;2.30;;;;;;;30.25;28.71;98846.34;5132633;27;20651;-71
2022/05/23 07:23:30;;;;;;;4.03;2.30;;;;;;;30.82;28.36;98846.31;5130169;27;20294;-70
2022/05/23 07:25:57;;;;;;;14.47;3.30;;;;;;;30.88;27.55;98843.00;5112440;28;20195;-71
2022/05/23 07:28:23;;;;;;;7.63;2.63;;;;;;;30.90;28.06;98843.44;5112302;28;20222;-71
2022/05/23 07:30:51;;;;;;;12.70;3.00;;;;;;;31.04;27.63;98852.13;5112944;28;20195;-72
2022/05/23 07:33:18;;;;;;;19.23;3.10;;;;;;;31.42;26.65;98847.03;5113806;27;20660;-73
2022/05/23 07:35:45;;;;;;;9.93;2.53;;;;;;;31.21;26.47;98848.31;5127423;27;20582;-73
2022/05/23 07:38:12;;;;;;;5.37;2.10;;;;;;;31.34;26.75;98844.41;5114691;27;20196;-72
2022/05/23 07:40:39;;;;;;;7.23;2.73;;;;;;;31.46;25.94;98847.94;5116100;27;20548;-74
2022/05/23 07:43:05;;;;;;;7.30;2.23;;;;;;;31.55;26.73;98845.03;5123767;27;20193;-71
2022/05/23 07:45:32;;;;;;;3.47;2.23;;;;;;;31.59;25.81;98852.22;5133306;27;20274;-72
2022/05/23 07:48:00;;;;;;;5.50;1.93;;;;;;;31.84;25.19;98853.75;5133409;27;20198;-72
2022/05/23 07:50:27;;;;;;;5.57;2.00;;;;;;;31.64;25.43;98843.72;5132272;27;20230;-69
2022/05/23 08:01:06;;;;;;;21.83;3.17;;;;;;;31.67;24.94;98843.03;5132951;28;20557;-73
2022/05/23 08:03:34;;;;;;;8.23;2.00;;;;;;;31.71;25.37;98843.94;5132910;27;20243;-74
2022/05/23 08:06:01;;;;;;;2.37;1.60;;;;;;;31.16;24.90;98846.63;5131919;27;20663;-71
2022/05/23 08:08:28;;;;;;;3.77;1.43;;;;;;;31.41;25.45;98839.13;5133210;27;20194;-73
2022/05/23 08:10:54;;;;;;;5.60;2.20;;;;;;;31.71;25.73;98832.94;5132801;27;20189;-73
2022/05/23 08:13:21;;;;;;;19.13;3.10;;;;;;;31.95;24.45;98832.06;5132642;27;20626;-73
2022/05/23 08:15:48;;;;;;;3.40;1.77;;;;;;;31.72;25.08;98818.06;5132456;27;20194;-74
2022/05/23 08:18:16;;;;;;;3.97;1.80;;;;;;;31.92;25.24;98828.06;5132560;27;20197;-72
2022/05/23 08:20:44;;;;;;;7.60;1.90;;;;;;;32.02;25.00;98833.06;5132879;27;20196;-72
2022/05/23 08:23:11;;;;;;;10.03;2.20;;;;;;;31.70;25.86;98828.63;5132560;27;20190;-74
2022/05/23 08:25:38;;;;;;;3.40;1.67;;;;;;;32.15;26.14;98820.84;5132380;27;20225;-73
2022/05/23 08:28:05;;;;;;;2.10;1.90;;;;;;;32.18;25.20;98820.09;5133303;27;20196;-80
2022/05/23 08:30:32;;;;;;;6.00;2.13;;;;;;;31.68;25.80;98819.13;5132776;27;20604;-76
2022/05/23 08:32:59;;;;;;;6.17;2.17;;;;;;;31.22;25.76;98823.25;5131567;27;20191;-76
2022/05/23 08:35:27;;;;;;;5.77;1.63;;;;;;;31.50;25.69;98820.56;5145345;27;20730;-72
2022/05/23 08:37:55;;;;;;;2.27;1.47;;;;;;;31.20;24.21;98817.31;5158148;27;20196;-74
2022/05/23 08:40:31;;;;;;;21.30;2.83;;;;;;;31.21;24.29;98818.91;5150969;27;20246;-75
2022/05/23 08:42:59;;;;;;;4.70;1.83;;;;;;;31.66;24.12;98813.16;5116838;28;20186;-74
2022/05/23 08:45:31;;;;;;;3.07;1.93;;;;;;;32.10;23.62;98818.31;5115525;28;20190;-76
2022/05/23 08:48:08;;;;;;;8.27;2.60;;;;;;;31.95;24.01;98799.88;5115867;28;20190;-72
2022/05/23 08:50:48;;;;;;;14.87;2.77;;;;;;;31.54;25.78;98805.78;5114979;28;20237;-74
2022/05/23 08:53:20;;;;;;;21.17;2.90;;;;;;;30.82;26.99;98802.44;5115863;28;20190;-73
2022/05/23 08:55:52;;;;;;;7.97;2.50;;;;;;;30.23;27.55;98813.00;5115979;28;20187;-71
2022/05/23 08:58:24;;;;;;;8.00;2.50;;;;;;;29.63;28.81;98799.13;5115462;28;20672;-72
2022/05/23 09:00:57;;;;;;;8.90;2.43;;;;;;;29.84;28.67;98797.16;5115203;28;20191;-72
2022/05/23 09:03:29;;;;;;;9.83;2.60;;;;;;;29.86;28.95;98792.13;5115927;28;20183;-71
2022/05/23 09:05:58;;;;;;;28.63;4.90;;;;;;;29.13;30.62;98787.47;5115446;28;20187;-70
2022/05/23 09:08:30;;;;;;;8.27;2.20;;;;;;;28.98;30.74;98779.84;5115545;27;20251;-72
2022/05/23 09:11:01;;;;;;;13.03;2.87;;;;;;;29.30;30.50;98781.88;5115691;28;20210;-70
2022/05/23 09:13:30;;;;;;;5.27;2.17;;;;;;;28.95;30.99;98775.06;5115556;28;20182;-71
2022/05/23 09:16:04;;;;;;;29.93;3.57;;;;;;;28.81;31.12;98782.69;5114863;28;20247;-70
2022/05/23 09:18:40;;;;;;;15.13;2.80;;;;;;;28.60;31.13;98773.66;5115012;28;20708;-71
2022/05/23 09:21:09;;;;;;;10.73;2.40;;;;;;;29.10;31.14;98777.19;5115684;28;20187;-71
2022/05/23 09:23:44;;;;;;;3.20;2.67;;;;;;;29.45;30.38;98777.72;5114777;28;20251;-71
2022/05/23 09:26:16;;;;;;;2.10;2.00;;;;;;;29.41;30.78;98777.59;5115231;28;20183;-70
2022/05/23 09:28:43;;;;;;;3.67;2.43;;;;;;;28.92;31.10;98776.50;5115386;28;20186;-71
2022/05/23 09:31:18;;;;;;;7.77;2.63;;;;;;;29.14;30.79;98772.66;5114995;28;20195;-71
2022/05/23 09:33:47;;;;;;;4.23;2.27;;;;;;;29.09;31.18;98765.47;5114598;28;20667;-72
2022/05/23 09:36:20;;;;;;;7.70;2.40;;;;;;;29.36;30.63;98766.84;5114490;28;20186;-71
2022/05/23 09:38:55;;;;;;;8.63;3.00;;;;;;;29.35;30.96;98767.19;5114503;28;20183;-70
2022/05/23 09:49:45;;;;;;;2.10;1.70;;;;;;;30.37;27.18;98758.66;5115243;28;20279;-67
2022/05/23 09:52:19;;;;;;;4.70;1.40;;;;;;;30.48;26.62;98767.22;5114144;28;20195;-67
2022/05/23 09:54:52;;;;;;;2.43;1.50;;;;;;;30.03;26.83;98761.81;5114640;28;20187;-67
2022/05/23 09:57:24;;;;;;;6.70;1.97;;;;;;;29.74;27.13;98753.78;5114495;28;20190;-67
2022/05/23 09:59:57;;;;;;;5.50;1.60;;;;;;;29.87;26.86;98757.31;5115345;28;20598;-68
2022/05/23 10:02:34;;;;;;;8.83;1.87;;;;;;;30.51;26.84;98750.91;5114418;28;20680;-67
2022/05/23 10:05:01;;;;;;;5.73;2.03;;;;;;;30.41;26.78;98751.34;5114069;28;20190;-68
2022/05/23 10:07:32;;;;;;;22.20;2.53;;;;;;;30.21;26.18;98748.72;5113874;28;20190;-69
2022/05/23 10:10:01;;;;;;;24.10;3.13;;;;;;;30.64;26.58;98746.19;5114180;28;20222;-70
2022/05/23 10:12:29;;;;;;;1.70;1.37;;;;;;;31.17;25.69;98740.34;5114604;28;20230;-69
2022/05/23 10:15:05;;;;;;;11.00;2.27;;;;;;;31.52;24.80;98742.16;5114142;28;20190;-69
2022/05/23 10:17:36;;;;;;;13.17;3.07;;;;;;;31.90;24.87;98742.47;5114109;28;20187;-69
2022/05/23 10:20:27;;;;;;;10.33;1.97;;;;;;;31.84;24.13;98749.34;5113837;28;20780;-69
2022/05/23 10:22:57;;;;;;;8.23;1.80;;;;;;;31.56;24.88;98737.56;5114108;27;20187;-70
2022/05/23 10:25:27;;;;;;;9.30;2.10;;;;;;;31.50;24.95;98732.69;5114132;28;20183;-70
2022/05/23 10:27:59;;;;;;;9.63;2.10;;;;;;;31.87;25.22;98740.41;5113991;28;20179;-71
2022/05/23 10:30:33;;;;;;;6.00;1.77;;;;;;;32.23;24.99;98731.09;5123960;27;20260;-70
2022/05/23 10:33:05;;;;;;;6.27;1.70;;;;;;;32.46;24.70;98738.34;5128957;27;20190;-70
2022/05/23 10:35:37;;;;;;;4.60;1.60;;;;;;;31.73;24.31;98736.47;5113839;28;20235;-70
2022/05/23 10:43:52;;;;;;;14.47;2.13;;;;;;;32.67;24.27;98730.59;5113612;28;20632;-68
2022/05/23 10:46:19;;;;;;;3.23;1.33;;;;;;;32.42;24.41;98723.72;5114110;28;20242;-68
2022/05/23 10:48:59;;;;;;;11.03;2.07;;;;;;;32.38;23.54;98733.06;5116452;27;20187;-69
2022/05/23 10:51:35;;;;;;;4.27;1.60;;;;;;;32.22;24.03;98722.03;5119385;27;20662;-70
2022/05/23 10:54:13;;;;;;;6.80;1.70;;;;;;;32.41;24.84;98733.13;5113552;27;20191;-69
2022/05/23 10:56:57;;;;;;;8.07;2.00;;;;;;;31.84;24.80;98732.84;5113594;28;20644;-66
2022/05/23 10:59:32;;;;;;;7.63;1.40;;;;;;;31.98;24.78;98726.94;5112909;28;20214;-69
2022/05/23 11:02:22;;;;;;;14.67;3.97;;;;;;;32.26;24.28;98716.63;5112968;28;20182;-69
2022/05/23 11:04:59;;;;;;;4.63;1.67;;;;;;;32.35;24.39;98718.09;5112322;28;20182;-69
2022/05/23 11:07:38;;;;;;;2.83;1.43;;;;;;;32.69;24.19;98722.78;5113207;28;20202;-70
2022/05/23 11:10:17;;;;;;;2.17;1.53;;;;;;;32.67;24.22;98714.06;5112860;28;20206;-69
2022/05/23 11:12:56;;;;;;;2.90;1.63;;;;;;;32.67;24.37;98722.34;5113435;28;20182;-70
2022/05/23 11:15:45;;;;;;;2.83;1.33;;;;;;;32.20;24.69;98713.34;5113735;28;20187;-71
2022/05/23 11:18:23;;;;;;;10.23;2.53;;;;;;;32.68;24.43;98701.94;5112791;28;20603;-69
2022/05/23 11:20:56;;;;;;;2.30;2.00;;;;;;;32.69;24.74;98698.03;5113002;28;20247;-71
2022/05/23 11:23:28;;;;;;;7.17;2.10;;;;;;;31.98;24.15;98700.25;5113022;28;20179;-71
2022/05/23 11:25:59;;;;;;;6.27;2.80;;;;;;;32.47;24.43;98695.94;5112623;27;20189;-69
2022/05/23 11:34:38;;;;;;;6.10;1.67;;;;;;;32.60;24.37;98650.69;5113651;27;20218;-75
2022/05/23 11:39:59;;;;;;;2.07;1.60;;;;;;;32.21;24.84;98684.72;5132291;27;20194;-73
2022/05/23 11:42:32;;;;;;;8.73;1.80;;;;;;;31.84;24.69;98680.66;5120239;27;20569;-76
2022/05/23 11:48:01;;;;;;;1.70;1.60;;;;;;;31.28;24.36;98681.13;5123154;27;20209;-73
2022/05/23 11:50:31;;;;;;;2.63;1.50;;;;;;;30.91;25.43;98676.91;5116244;27;20226;-73
2022/05/23 11:53:12;;;;;;;6.33;1.97;;;;;;;31.34;25.92;98664.03;5112620;28;20191;-71
2022/05/23 11:56:01;;;;;;;4.50;1.40;;;;;;;31.83;25.23;98673.59;5123956;28;20246;-69
2022/05/23 11:58:41;;;;;;;4.00;1.70;;;;;;;31.75;25.65;98671.78;5122634;27;20568;-73
2022/05/23 12:01:30;;;;;;;3.23;1.80;;;;;;;31.65;26.38;98669.53;5112501;28;20186;-71
2022/05/23 12:04:16;;;;;;;7.03;1.60;;;;;;;32.11;25.30;98666.03;5112089;28;20187;-71
2022/05/23 12:06:50;;;;;;;5.43;1.90;;;;;;;32.23;23.77;98665.91;5115048;28;20190;-72
2022/05/23 12:09:38;;;;;;;13.90;2.03;;;;;;;32.25;23.93;98676.53;5116579;28;20569;-71
2022/05/23 12:12:47;;;;;;;6.20;2.03;;;;;;;32.12;24.85;98666.81;5111945;28;20281;-71
2022/05/23 12:15:47;;;;;;;7.63;2.30;;;;;;;32.10;25.21;98656.16;5054142;28;20200;-71
2022/05/23 12:18:33;;;;;;;5.53;1.70;;;;;;;31.98;24.00;98661.78;5053268;28;20243;-71
2022/05/23 12:21:01;;;;;;;9.53;1.50;;;;;;;32.00;24.36;98662.22;5106082;28;20575;-69
2022/05/23 12:23:35;;;;;;;2.90;1.37;;;;;;;32.16;23.94;98652.00;5115973;28;20721;-70
2022/05/23 12:26:21;;;;;;;7.40;2.10;;;;;;;32.32;24.41;98665.72;5116037;28;20191;-69
2022/05/23 12:28:52;;;;;;;123.20;10.60;;;;;;;31.94;23.93;98662.84;5114617;28;20643;-69
2022/05/23 12:31:20;;;;;;;2.27;1.30;;;;;;;31.47;23.91;98656.50;5127467;27;20303;-69
2022/05/23 12:33:51;;;;;;;7.50;1.33;;;;;;;31.68;26.13;98649.63;5115898;28;20221;-71
2022/05/23 12:36:26;;;;;;;3.93;1.40;;;;;;;31.92;25.60;98646.72;5116471;28;20178;-70
2022/05/23 12:39:31;;;;;;;3.43;1.40;;;;;;;32.18;24.99;98657.91;5116363;28;20198;-69
2022/05/23 12:42:16;;;;;;;2.83;1.30;;;;;;;32.28;26.03;98659.31;5117284;27;20211;-71
2022/05/23 12:45:36;;;;;;;4.63;1.60;;;;;;;31.62;25.92;98653.78;5116154;28;20182;-71
2022/05/23 12:48:29;;;;;;;2.30;1.30;;;;;;;31.44;24.27;98657.22;5115532;28;20244;-69
2022/05/23 12:51:11;;;;;;;1.83;1.73;;;;;;;31.44;24.91;98660.75;5116079;28;20210;-69
2022/05/23 12:54:05;;;;;;;5.00;1.47;;;;;;;31.61;25.58;98657.66;5115435;28;20182;-69